Time;durP1;ratioP1;P1;durP2;ratioP2;P2;SDS_P1;SDS_P2;PMS_P1;PMS_P2;Temp;Humidity;BMP_temperature;BMP_pressure;BME280_temperature;BME280_humidity;BME280_pressure;Samples;Min_cycle;Max_cycle;Signal;HPM_P1;HPM_P2
2021/08/18 00:00:46;;;;;;;7.90;7.10;;;23.40;30.80;;;;;;5012142;28;20411;-64
2021/08/18 00:03:12;;;;;;;7.50;6.80;;;23.40;30.80;;;;;;5012112;28;20409;-65
2021/08/18 00:05:38;;;;;;;7.50;6.70;;;23.50;30.80;;;;;;5011907;28;20455;-65
2021/08/18 00:08:06;;;;;;;7.70;7.00;;;23.50;30.90;;;;;;5012051;28;20444;-64
2021/08/18 00:10:32;;;;;;;7.40;6.80;;;23.50;30.90;;;;;;5012730;28;20777;-64
2021/08/18 00:12:58;;;;;;;11.90;7.20;;;23.50;30.90;;;;;;5012360;28;20416;-64
2021/08/18 00:15:25;;;;;;;6.90;6.30;;;23.50;30.80;;;;;;5012085;28;20416;-64
2021/08/18 00:17:51;;;;;;;7.63;6.90;;;23.50;30.90;;;;;;5011993;28;20587;-65
2021/08/18 00:20:17;;;;;;;7.60;6.90;;;23.40;30.80;;;;;;5011938;28;20907;-65
2021/08/18 00:22:43;;;;;;;7.93;7.17;;;23.50;30.90;;;;;;5011821;28;20431;-65
2021/08/18 00:25:09;;;;;;;7.93;6.90;;;23.40;30.80;;;;;;5011915;28;20205;-65
2021/08/18 00:27:34;;;;;;;7.60;6.90;;;23.40;30.80;;;;;;5011798;28;20424;-65
2021/08/18 00:30:01;;;;;;;9.17;7.33;;;23.50;30.90;;;;;;5011940;28;20173;-65
2021/08/18 00:32:26;;;;;;;7.97;7.27;;;23.40;30.80;;;;;;5011821;28;20185;-65
2021/08/18 00:34:52;;;;;;;8.40;7.70;;;23.40;30.80;;;;;;5011729;28;20412;-65
2021/08/18 00:37:17;;;;;;;8.27;7.47;;;23.40;30.80;;;;;;5011679;28;20201;-65
2021/08/18 00:39:44;;;;;;;8.73;7.50;;;23.40;30.90;;;;;;5011877;28;20187;-65
2021/08/18 00:42:09;;;;;;;8.47;7.67;;;23.40;30.90;;;;;;5011875;28;20170;-65
2021/08/18 00:44:36;;;;;;;7.40;6.80;;;23.40;30.90;;;;;;5011616;28;20459;-65
2021/08/18 00:47:05;;;;;;;8.30;7.60;;;23.40;31.00;;;;;;5011621;28;20193;-65
2021/08/18 00:49:31;;;;;;;8.80;8.00;;;23.40;31.10;;;;;;5011682;28;20416;-65
2021/08/18 00:51:58;;;;;;;7.60;6.90;;;23.40;31.10;;;;;;5011619;28;20458;-65
2021/08/18 00:54:24;;;;;;;8.23;7.53;;;23.40;31.20;;;;;;5011758;28;20423;-64
2021/08/18 00:56:51;;;;;;;7.57;6.87;;;23.40;31.20;;;;;;5011360;28;20794;-64
2021/08/18 00:59:16;;;;;;;7.90;7.13;;;23.40;31.30;;;;;;5011495;28;20200;-64
2021/08/18 01:01:42;;;;;;;8.17;7.47;;;23.40;31.30;;;;;;5012887;28;20506;-64
2021/08/18 01:04:08;;;;;;;8.43;7.40;;;23.40;31.30;;;;;;5015153;28;20615;-64
2021/08/18 01:06:41;;;;;;;7.40;6.80;;;23.40;31.30;;;;;;5014881;28;20431;-64
2021/08/18 01:09:09;;;;;;;7.87;7.07;;;23.40;31.40;;;;;;5015296;28;20427;-64
2021/08/18 01:11:36;;;;;;;8.37;7.57;;;23.30;31.30;;;;;;5015167;28;20412;-64
2021/08/18 01:14:03;;;;;;;8.57;6.80;;;23.40;31.40;;;;;;5013986;28;20435;-64
2021/08/18 01:16:34;;;;;;;7.83;7.10;;;23.40;31.30;;;;;;5014836;28;20408;-64
2021/08/18 01:19:00;;;;;;;8.77;7.97;;;23.40;31.40;;;;;;5014861;28;20416;-64
2021/08/18 01:21:26;;;;;;;8.63;7.40;;;23.40;31.40;;;;;;5015087;28;20462;-64
2021/08/18 01:23:52;;;;;;;8.73;8.03;;;23.40;31.40;;;;;;5014793;28;21033;-65
2021/08/18 01:26:17;;;;;;;8.07;7.30;;;23.40;31.40;;;;;;5014624;28;20177;-65
2021/08/18 01:28:43;;;;;;;7.73;6.93;;;23.40;31.40;;;;;;5014747;28;20188;-64
2021/08/18 01:31:08;;;;;;;7.90;7.10;;;23.40;31.40;;;;;;5014721;28;20205;-64
2021/08/18 01:33:34;;;;;;;8.93;8.03;;;23.40;31.40;;;;;;5014890;28;20181;-64
2021/08/18 01:36:00;;;;;;;7.90;7.20;;;23.40;31.30;;;;;;5014474;28;20178;-64
2021/08/18 01:38:26;;;;;;;8.40;7.57;;;23.30;31.20;;;;;;5014508;28;20776;-64
2021/08/18 01:40:52;;;;;;;7.77;7.07;;;23.30;31.20;;;;;;5014632;28;20178;-64
2021/08/18 01:43:20;;;;;;;8.63;7.83;;;23.30;31.20;;;;;;5014594;28;20189;-65
2021/08/18 01:45:46;;;;;;;8.60;7.70;;;23.40;31.30;;;;;;5014228;28;20551;-65
2021/08/18 01:48:15;;;;;;;8.70;7.90;;;23.40;31.20;;;;;;5013126;28;20798;-64
2021/08/18 01:50:42;;;;;;;9.50;8.50;;;23.40;31.30;;;;;;5014553;28;20419;-64
2021/08/18 01:53:07;;;;;;;8.80;8.00;;;23.40;31.30;;;;;;5014292;28;20806;-65
2021/08/18 01:55:34;;;;;;;8.40;7.70;;;23.40;31.30;;;;;;5014077;28;20416;-65
2021/08/18 01:57:59;;;;;;;8.37;7.60;;;23.30;31.20;;;;;;5014002;28;20829;-65
2021/08/18 02:00:27;;;;;;;8.77;7.97;;;23.40;31.30;;;;;;5014191;28;20504;-65
2021/08/18 02:02:52;;;;;;;8.90;7.43;;;23.40;31.30;;;;;;5014139;28;20181;-65
2021/08/18 02:05:18;;;;;;;8.30;7.50;;;23.30;31.10;;;;;;5013877;28;20451;-65
2021/08/18 02:07:44;;;;;;;10.97;8.07;;;23.40;31.20;;;;;;5013986;28;20189;-65
2021/08/18 02:10:14;;;;;;;8.90;8.00;;;23.40;31.20;;;;;;5014035;28;20409;-65
2021/08/18 02:12:40;;;;;;;8.93;8.13;;;23.40;31.20;;;;;;5013506;28;20260;-64
2021/08/18 02:15:09;;;;;;;10.17;9.07;;;23.30;31.20;;;;;;5013626;28;20922;-65
2021/08/18 02:17:35;;;;;;;10.13;9.17;;;23.30;31.20;;;;;;5013779;28;20432;-64
2021/08/18 02:20:02;;;;;;;8.73;7.83;;;23.30;31.10;;;;;;5013817;28;20414;-64
2021/08/18 02:22:27;;;;;;;9.20;8.40;;;23.30;31.10;;;;;;5013886;28;20188;-65
2021/08/18 02:24:53;;;;;;;8.90;8.00;;;23.30;31.10;;;;;;5013429;28;20459;-64
2021/08/18 02:27:18;;;;;;;8.87;8.07;;;23.30;31.10;;;;;;5013712;28;20279;-65
2021/08/18 02:29:44;;;;;;;8.93;8.13;;;23.30;31.20;;;;;;5013713;28;20188;-65
2021/08/18 02:32:09;;;;;;;10.57;9.30;;;23.30;31.10;;;;;;5013472;28;20585;-65
2021/08/18 02:34:35;;;;;;;8.97;8.17;;;23.30;31.10;;;;;;5013516;28;20183;-65
2021/08/18 02:37:00;;;;;;;9.20;8.30;;;23.30;31.10;;;;;;5013334;28;20224;-65
2021/08/18 02:39:26;;;;;;;8.83;8.03;;;23.30;31.10;;;;;;5013501;28;20185;-65
2021/08/18 02:41:51;;;;;;;9.93;8.93;;;23.30;31.10;;;;;;5013485;28;20320;-65
2021/08/18 02:44:17;;;;;;;8.73;7.93;;;23.30;31.20;;;;;;5013228;28;20572;-65
2021/08/18 02:46:42;;;;;;;9.23;8.20;;;23.30;31.10;;;;;;5013429;28;20656;-65
2021/08/18 02:49:08;;;;;;;8.30;7.47;;;23.30;31.10;;;;;;5013468;28;20173;-65
2021/08/18 02:51:34;;;;;;;10.07;7.93;;;23.30;31.10;;;;;;5013421;28;20181;-65
2021/08/18 02:53:59;;;;;;;10.40;7.97;;;23.30;31.10;;;;;;5013204;28;20180;-65
2021/08/18 02:56:25;;;;;;;10.10;9.10;;;23.30;31.10;;;;;;5012848;28;20177;-65
2021/08/18 02:58:50;;;;;;;10.57;9.57;;;23.30;31.10;;;;;;5012905;28;20192;-65
2021/08/18 03:01:16;;;;;;;9.07;8.27;;;23.30;31.20;;;;;;5013168;28;20177;-64
2021/08/18 03:03:41;;;;;;;7.63;6.93;;;23.30;31.20;;;;;;5012929;28;20174;-64
2021/08/18 03:06:06;;;;;;;8.07;7.37;;;23.30;31.60;;;;;;5012841;28;20184;-65
2021/08/18 03:08:32;;;;;;;9.10;8.10;;;23.30;31.20;;;;;;5012910;28;20881;-64
2021/08/18 03:10:57;;;;;;;9.40;8.57;;;23.20;31.10;;;;;;5012928;28;20224;-65
2021/08/18 03:13:23;;;;;;;8.50;7.80;;;23.30;31.20;;;;;;5012775;28;20593;-65
2021/08/18 03:15:48;;;;;;;9.30;8.40;;;23.30;31.20;;;;;;5012961;28;20187;-64
2021/08/18 03:18:14;;;;;;;8.90;8.00;;;23.30;31.30;;;;;;5012637;28;20189;-65
2021/08/18 03:20:40;;;;;;;9.03;8.30;;;23.30;31.20;;;;;;5012943;28;20239;-64
2021/08/18 03:23:05;;;;;;;9.10;8.30;;;23.20;31.10;;;;;;5012632;28;20187;-65
2021/08/18 03:25:31;;;;;;;9.53;8.73;;;23.20;31.20;;;;;;5011716;28;20211;-64
2021/08/18 03:27:56;;;;;;;9.47;8.57;;;23.30;31.30;;;;;;5012435;28;20597;-64
2021/08/18 03:30:22;;;;;;;8.67;7.87;;;23.20;31.10;;;;;;5012856;28;20181;-63
2021/08/18 03:32:47;;;;;;;8.60;7.80;;;23.20;31.10;;;;;;5012460;28;20699;-64
2021/08/18 03:35:13;;;;;;;7.50;6.90;;;23.20;31.10;;;;;;5012315;28;20181;-64
2021/08/18 03:37:39;;;;;;;9.17;8.20;;;23.20;31.10;;;;;;5012431;28;20560;-64
2021/08/18 03:40:05;;;;;;;8.77;8.07;;;23.20;31.20;;;;;;5012490;28;20260;-64
2021/08/18 03:42:30;;;;;;;7.83;7.13;;;23.20;31.20;;;;;;5012309;28;20173;-64
2021/08/18 03:44:56;;;;;;;9.37;8.47;;;23.20;31.10;;;;;;5012091;28;20467;-64
2021/08/18 03:47:21;;;;;;;9.73;8.53;;;23.20;31.20;;;;;;5012206;28;20201;-65
2021/08/18 03:49:47;;;;;;;8.83;7.93;;;23.30;31.20;;;;;;5012482;28;20175;-65
2021/08/18 03:52:13;;;;;;;9.67;8.57;;;23.30;31.20;;;;;;5012233;28;20655;-65
2021/08/18 03:54:38;;;;;;;9.13;7.57;;;23.20;31.10;;;;;;5012035;28;20189;-65
2021/08/18 03:57:04;;;;;;;8.37;7.50;;;23.20;31.20;;;;;;5012105;28;20189;-65
2021/08/18 03:59:29;;;;;;;8.47;7.67;;;23.20;31.20;;;;;;5012039;28;20181;-65
2021/08/18 04:01:55;;;;;;;8.80;8.00;;;23.20;31.20;;;;;;5012187;28;20209;-65
2021/08/18 04:04:20;;;;;;;9.83;8.93;;;23.20;31.10;;;;;;5012071;28;20203;-65
2021/08/18 04:06:46;;;;;;;8.83;8.13;;;23.20;31.20;;;;;;5011903;28;20277;-65
2021/08/18 04:09:12;;;;;;;8.40;7.60;;;23.20;31.20;;;;;;5012131;28;20600;-65
2021/08/18 04:11:37;;;;;;;9.10;8.30;;;23.20;31.20;;;;;;5012075;28;20488;-65
2021/08/18 04:14:03;;;;;;;9.20;7.70;;;23.20;31.20;;;;;;5011962;28;20212;-65
2021/08/18 04:16:28;;;;;;;9.20;8.43;;;23.20;31.20;;;;;;5011834;28;20169;-65
2021/08/18 04:18:54;;;;;;;8.70;7.90;;;23.20;31.30;;;;;;5011761;28;20256;-65
2021/08/18 04:21:19;;;;;;;8.00;7.30;;;23.20;31.30;;;;;;5011936;28;20641;-65
2021/08/18 04:23:45;;;;;;;8.90;8.00;;;23.20;31.30;;;;;;5011710;28;20544;-65
2021/08/18 04:26:10;;;;;;;8.47;7.67;;;23.20;31.30;;;;;;5011751;28;20169;-65
2021/08/18 04:28:36;;;;;;;9.20;8.10;;;23.20;31.30;;;;;;5011630;28;20200;-63
2021/08/18 04:31:02;;;;;;;8.60;7.70;;;23.20;31.50;;;;;;5011887;28;20200;-63
2021/08/18 04:33:27;;;;;;;8.67;7.70;;;23.20;31.50;;;;;;5011128;28;20651;-63
2021/08/18 04:35:53;;;;;;;9.33;8.53;;;23.20;31.60;;;;;;5013067;28;20174;-63
2021/08/18 04:38:18;;;;;;;8.13;7.33;;;23.20;31.60;;;;;;5015677;28;20236;-63
2021/08/18 04:40:44;;;;;;;7.77;7.07;;;23.20;31.70;;;;;;5015609;28;20648;-64
2021/08/18 04:43:13;;;;;;;9.27;8.37;;;23.20;31.70;;;;;;5015843;28;20181;-63
2021/08/18 04:45:40;;;;;;;10.67;7.73;;;23.20;31.70;;;;;;5015348;28;20209;-63
2021/08/18 04:48:05;;;;;;;10.33;8.20;;;23.20;31.80;;;;;;5015356;28;20432;-63
2021/08/18 04:50:31;;;;;;;9.47;8.23;;;23.20;31.80;;;;;;5015483;28;20404;-63
2021/08/18 04:52:56;;;;;;;8.33;7.63;;;23.20;31.90;;;;;;5015400;28;20173;-63
2021/08/18 04:55:22;;;;;;;8.40;7.60;;;23.20;31.90;;;;;;5015144;28;20224;-65
2021/08/18 04:57:48;;;;;;;8.33;7.60;;;23.20;31.80;;;;;;5015055;28;20213;-64
2021/08/18 05:00:15;;;;;;;7.57;6.60;;;23.20;31.80;;;;;;5022981;28;20189;-64
2021/08/18 05:02:40;;;;;;;10.47;9.40;;;23.20;31.80;;;;;;5034583;28;20267;-63
2021/08/18 05:05:07;;;;;;;9.77;6.60;;;23.20;31.90;;;;;;5034016;28;20554;-63
2021/08/18 05:07:32;;;;;;;7.90;7.10;;;23.20;32.00;;;;;;5034760;28;20199;-63
2021/08/18 05:09:58;;;;;;;9.10;8.30;;;23.20;31.80;;;;;;5034829;28;20403;-63
2021/08/18 05:12:23;;;;;;;8.43;7.47;;;23.20;31.90;;;;;;5034628;28;20223;-63
2021/08/18 05:14:49;;;;;;;8.77;7.33;;;23.20;31.80;;;;;;5034496;28;20172;-63
2021/08/18 05:17:15;;;;;;;7.50;6.80;;;23.20;31.70;;;;;;5034814;28;20200;-64
2021/08/18 05:19:40;;;;;;;7.07;6.27;;;23.20;31.70;;;;;;5034673;28;20258;-63
2021/08/18 05:22:06;;;;;;;8.10;7.40;;;23.20;31.70;;;;;;5034671;28;20524;-65
2021/08/18 05:24:31;;;;;;;9.43;7.90;;;23.20;31.70;;;;;;5034422;28;20574;-62
2021/08/18 05:26:57;;;;;;;9.80;7.30;;;23.20;31.70;;;;;;5033962;28;20221;-62
2021/08/18 05:29:22;;;;;;;7.00;6.30;;;23.20;31.70;;;;;;5034469;28;20175;-60
2021/08/18 05:31:48;;;;;;;6.80;6.10;;;23.20;32.20;;;;;;5034508;28;20181;-62
2021/08/18 05:34:14;;;;;;;7.00;6.33;;;23.20;31.80;;;;;;5034506;28;20181;-65
2021/08/18 05:36:39;;;;;;;9.70;7.43;;;23.20;31.80;;;;;;5027349;28;20192;-64
2021/08/18 05:39:05;;;;;;;7.27;6.57;;;23.20;31.80;;;;;;5034324;28;20172;-65
2021/08/18 05:41:31;;;;;;;7.33;6.53;;;23.20;32.00;;;;;;5033159;28;20260;-64
2021/08/18 05:43:56;;;;;;;9.53;6.73;;;23.20;32.20;;;;;;5018153;28;20231;-64
2021/08/18 05:46:22;;;;;;;6.63;5.93;;;23.20;32.20;;;;;;5027203;28;20285;-64
2021/08/18 05:48:47;;;;;;;8.33;6.70;;;23.20;32.30;;;;;;5043309;28;20689;-64
2021/08/18 05:51:13;;;;;;;7.80;6.17;;;23.20;32.70;;;;;;5041023;28;20649;-63
2021/08/18 05:53:38;;;;;;;7.10;6.07;;;23.20;32.70;;;;;;5040164;28;20224;-63
2021/08/18 05:56:04;;;;;;;7.67;6.60;;;23.20;32.70;;;;;;5037692;28;20811;-65
2021/08/18 05:58:30;;;;;;;9.93;6.60;;;23.20;32.70;;;;;;5037887;28;20235;-63
2021/08/18 06:00:56;;;;;;;7.50;6.00;;;23.20;32.70;;;;;;5037949;28;20246;-64
2021/08/18 06:03:21;;;;;;;7.17;5.37;;;23.20;32.70;;;;;;5038339;28;20229;-64
2021/08/18 06:05:47;;;;;;;7.20;6.40;;;23.20;32.70;;;;;;5038001;28;20469;-64
2021/08/18 06:08:12;;;;;;;9.23;7.67;;;23.20;32.70;;;;;;5038370;28;20238;-64
2021/08/18 06:10:38;;;;;;;12.00;7.10;;;23.20;32.70;;;;;;5039515;28;20231;-64
2021/08/18 06:13:03;;;;;;;9.40;7.03;;;23.20;32.70;;;;;;5039713;28;20230;-63
2021/08/18 06:15:30;;;;;;;9.60;6.47;;;23.20;32.70;;;;;;5039215;28;20597;-63
2021/08/18 06:17:56;;;;;;;8.83;6.50;;;23.20;32.20;;;;;;5039565;28;20266;-63
2021/08/18 06:20:22;;;;;;;10.37;6.57;;;23.20;32.10;;;;;;5039415;28;20816;-63
2021/08/18 06:22:48;;;;;;;6.97;6.00;;;23.20;32.00;;;;;;5039291;28;20446;-64
2021/08/18 06:25:15;;;;;;;6.10;5.50;;;23.10;31.70;;;;;;5039181;28;20378;-64
2021/08/18 06:27:40;;;;;;;6.27;5.67;;;23.10;31.70;;;;;;5039385;28;20458;-64
2021/08/18 06:30:07;;;;;;;5.27;4.77;;;23.10;31.60;;;;;;5039297;28;20455;-64
2021/08/18 06:32:33;;;;;;;6.30;4.83;;;23.10;31.60;;;;;;5039459;28;20331;-64
2021/08/18 06:34:59;;;;;;;6.50;5.63;;;23.10;31.50;;;;;;5039046;28;20457;-64
2021/08/18 06:37:24;;;;;;;6.03;5.43;;;23.10;31.50;;;;;;5029063;28;20236;-64
2021/08/18 06:39:50;;;;;;;6.00;5.23;;;23.10;31.50;;;;;;5019293;28;20224;-64
2021/08/18 06:42:16;;;;;;;5.30;4.80;;;23.10;31.50;;;;;;5022058;28;20349;-64
2021/08/18 06:44:42;;;;;;;6.73;5.40;;;23.10;31.50;;;;;;5018312;28;20595;-64
2021/08/18 06:47:08;;;;;;;8.10;5.40;;;23.10;31.50;;;;;;5020104;28;20827;-64
2021/08/18 06:49:34;;;;;;;7.20;5.43;;;23.10;31.60;;;;;;5038760;28;20520;-64
2021/08/18 06:52:00;;;;;;;5.77;5.10;;;23.10;31.50;;;;;;5038665;28;20450;-64
2021/08/18 06:54:26;;;;;;;8.43;4.90;;;23.10;31.60;;;;;;5038582;28;20446;-64
2021/08/18 06:56:52;;;;;;;5.47;4.97;;;23.10;31.60;;;;;;5038748;28;20513;-64
2021/08/18 06:59:17;;;;;;;7.07;5.20;;;23.10;31.60;;;;;;5038379;28;20281;-63
2021/08/18 07:01:44;;;;;;;6.13;5.53;;;23.10;31.70;;;;;;5037225;28;20258;-64
2021/08/18 07:04:09;;;;;;;9.70;5.27;;;23.10;31.70;;;;;;5021073;28;20290;-64
2021/08/18 07:06:35;;;;;;;5.57;5.07;;;23.10;31.80;;;;;;5019789;28;20864;-64
2021/08/18 07:09:02;;;;;;;5.00;4.50;;;23.10;31.90;;;;;;5038213;28;20234;-64
2021/08/18 07:11:28;;;;;;;5.10;4.20;;;23.10;32.00;;;;;;5038484;28;20827;-64
2021/08/18 07:13:59;;;;;;;6.47;4.93;;;23.10;32.00;;;;;;5038129;28;20996;-65
2021/08/18 07:16:26;;;;;;;6.30;5.10;;;23.10;32.20;;;;;;5037957;28;20449;-64
2021/08/18 07:18:51;;;;;;;4.90;4.50;;;23.10;32.10;;;;;;5038359;28;20450;-68
2021/08/18 07:21:20;;;;;;;5.07;4.63;;;23.10;32.20;;;;;;5037992;28;21021;-64
2021/08/18 07:23:47;;;;;;;4.70;4.10;;;23.10;32.20;;;;;;5038183;28;20216;-63
2021/08/18 07:26:13;;;;;;;5.93;5.33;;;23.10;32.20;;;;;;5037937;28;20526;-63
2021/08/18 07:28:38;;;;;;;4.37;4.00;;;23.10;32.20;;;;;;5037834;28;20901;-62
2021/08/18 07:31:04;;;;;;;5.57;5.10;;;23.10;32.30;;;;;;5038461;28;20224;-63
2021/08/18 07:33:29;;;;;;;5.20;4.80;;;23.10;32.30;;;;;;5037974;28;20306;-63
2021/08/18 07:35:55;;;;;;;6.43;4.03;;;23.10;32.30;;;;;;5037258;28;20421;-63
2021/08/18 07:38:20;;;;;;;5.53;5.10;;;23.10;32.60;;;;;;5037861;28;20720;-63
2021/08/18 07:40:47;;;;;;;8.10;4.30;;;23.10;32.60;;;;;;5038203;28;20616;-60
2021/08/18 07:43:13;;;;;;;4.80;4.33;;;23.10;32.60;;;;;;5037990;28;20601;-63
2021/08/18 07:45:38;;;;;;;5.20;4.67;;;23.10;32.60;;;;;;5037612;28;20458;-64
2021/08/18 07:48:04;;;;;;;4.90;4.47;;;23.10;32.60;;;;;;5037843;28;20511;-62
2021/08/18 07:50:30;;;;;;;5.13;4.40;;;23.10;32.60;;;;;;5037615;28;20219;-62
2021/08/18 07:52:55;;;;;;;4.50;4.00;;;23.10;32.60;;;;;;5037698;28;20489;-63
2021/08/18 07:55:21;;;;;;;4.50;4.10;;;23.10;32.60;;;;;;5037631;28;20313;-62
2021/08/18 07:57:46;;;;;;;5.07;4.37;;;23.20;32.70;;;;;;5038725;28;20702;-62
2021/08/18 08:00:12;;;;;;;5.10;3.40;;;23.20;32.70;;;;;;5036806;28;20236;-62
2021/08/18 08:02:44;;;;;;;5.80;4.20;;;23.20;32.70;;;;;;5036394;28;20235;-63
2021/08/18 08:05:11;;;;;;;4.00;3.70;;;23.20;32.70;;;;;;5035731;28;20913;-63
2021/08/18 08:07:37;;;;;;;4.67;3.33;;;23.20;32.70;;;;;;5036254;28;20442;-62
2021/08/18 08:10:07;;;;;;;5.00;3.83;;;23.20;32.70;;;;;;5035793;28;20987;-62
2021/08/18 08:12:33;;;;;;;6.27;4.13;;;23.20;32.70;;;;;;5022702;28;20496;-62
2021/08/18 08:14:59;;;;;;;3.63;3.37;;;23.20;32.70;;;;;;5022788;28;20450;-62
2021/08/18 08:17:25;;;;;;;3.53;3.30;;;23.10;32.60;;;;;;5024655;28;20481;-62
2021/08/18 08:19:50;;;;;;;4.27;3.90;;;23.10;32.60;;;;;;5023873;28;20255;-62
2021/08/18 08:22:16;;;;;;;4.70;3.70;;;23.10;32.60;;;;;;5024552;28;20462;-62
2021/08/18 08:24:42;;;;;;;2.90;2.60;;;23.10;32.60;;;;;;5024130;28;20224;-62
2021/08/18 08:27:07;;;;;;;3.73;3.20;;;23.10;32.60;;;;;;5023826;28;20236;-61
2021/08/18 08:29:33;;;;;;;4.57;4.17;;;23.10;32.60;;;;;;5024072;28;20703;-61
2021/08/18 08:31:58;;;;;;;3.40;3.10;;;23.10;32.60;;;;;;5027463;28;20337;-67
2021/08/18 08:34:24;;;;;;;3.57;3.30;;;23.10;32.60;;;;;;5038145;28;20218;-70
2021/08/18 08:36:49;;;;;;;2.97;2.77;;;23.10;32.60;;;;;;5043658;28;20255;-68
2021/08/18 08:39:15;;;;;;;3.00;2.70;;;23.10;32.60;;;;;;5044013;28;20720;-68
2021/08/18 08:41:43;;;;;;;2.60;2.40;;;23.10;32.60;;;;;;5042207;28;20223;-70
2021/08/18 08:44:15;;;;;;;3.40;2.57;;;23.10;32.60;;;;;;5043965;28;20227;-62
2021/08/18 08:46:41;;;;;;;2.77;2.57;;;23.10;32.60;;;;;;5043736;28;20446;-62
2021/08/18 08:49:07;;;;;;;2.80;2.50;;;23.10;32.60;;;;;;5043461;28;20964;-61
2021/08/18 08:51:32;;;;;;;3.40;2.83;;;23.10;32.60;;;;;;5043823;28;20239;-63
2021/08/18 08:53:58;;;;;;;3.13;2.83;;;23.10;32.60;;;;;;5043962;28;21166;-70
2021/08/18 08:56:23;;;;;;;3.10;2.80;;;23.10;32.60;;;;;;5043322;28;20231;-71
2021/08/18 08:58:49;;;;;;;2.77;2.30;;;23.10;32.60;;;;;;5043703;28;20892;-71
2021/08/18 09:01:15;;;;;;;3.23;2.93;;;23.10;32.60;;;;;;5043874;28;20227;-68
2021/08/18 09:03:45;;;;;;;4.50;2.57;;;23.10;32.60;;;;;;5043593;28;20234;-72
2021/08/18 09:06:10;;;;;;;2.50;2.30;;;23.10;32.60;;;;;;5043934;28;20227;-63
2021/08/18 09:08:50;;;;;;;2.80;2.30;;;23.20;32.70;;;;;;5043620;28;20837;-73
2021/08/18 09:11:18;;;;;;;2.90;2.70;;;23.20;32.70;;;;;;5042189;28;20360;-62
2021/08/18 09:13:54;;;;;;;3.03;2.83;;;23.10;32.60;;;;;;5023869;28;20538;-66
2021/08/18 09:16:21;;;;;;;2.27;2.00;;;23.10;32.60;;;;;;5023650;28;20515;-64
2021/08/18 09:18:49;;;;;;;2.80;2.60;;;23.20;32.70;;;;;;5023526;28;20447;-63
2021/08/18 09:21:25;;;;;;;2.67;2.47;;;23.10;32.60;;;;;;5022970;28;20455;-62
2021/08/18 09:23:51;;;;;;;2.63;2.23;;;23.10;32.60;;;;;;5019801;28;21100;-65
2021/08/18 09:26:21;;;;;;;2.57;2.37;;;23.10;32.60;;;;;;5019683;28;20479;-63
2021/08/18 09:28:47;;;;;;;2.47;2.30;;;23.10;32.60;;;;;;5020402;28;20281;-64
2021/08/18 09:31:24;;;;;;;2.30;2.10;;;23.10;32.60;;;;;;5020233;28;20584;-62
2021/08/18 09:33:55;;;;;;;2.97;2.20;;;23.20;32.70;;;;;;5020261;28;20443;-62
2021/08/18 09:36:25;;;;;;;2.73;2.53;;;23.20;32.70;;;;;;5020418;28;20959;-65
2021/08/18 09:39:11;;;;;;;2.00;1.90;;;23.20;32.70;;;;;;5027818;28;20442;-60
2021/08/18 09:41:36;;;;;;;2.07;1.93;;;23.10;32.60;;;;;;5038853;28;20688;-67
2021/08/18 09:44:06;;;;;;;5.27;2.03;;;23.10;32.60;;;;;;5027513;28;20443;-67
2021/08/18 09:46:35;;;;;;;2.33;2.20;;;23.10;32.60;;;;;;5019774;28;20867;-73
2021/08/18 09:49:08;;;;;;;5.87;1.80;;;23.10;32.60;;;;;;5019854;28;20762;-63
2021/08/18 09:51:34;;;;;;;1.90;1.80;;;23.20;32.70;;;;;;5020186;28;20475;-63
2021/08/18 09:54:12;;;;;;;1.83;1.73;;;23.20;32.70;;;;;;5019808;28;20478;-71
2021/08/18 09:56:48;;;;;;;1.90;1.80;;;23.20;32.70;;;;;;5019494;28;20315;-62
2021/08/18 09:59:15;;;;;;;2.10;2.00;;;23.20;32.70;;;;;;5018196;28;20508;-74
2021/08/18 10:01:41;;;;;;;2.10;2.00;;;23.20;32.70;;;;;;5019728;28;20816;-64
2021/08/18 10:04:07;;;;;;;2.50;2.00;;;23.20;32.70;;;;;;5019164;28;20529;-63
2021/08/18 10:06:33;;;;;;;2.10;1.90;;;23.20;32.70;;;;;;5019600;28;20248;-68
2021/08/18 10:09:01;;;;;;;1.97;1.73;;;23.20;33.40;;;;;;5019915;28;20328;-64
2021/08/18 10:11:27;;;;;;;1.97;1.77;;;23.20;32.70;;;;;;5019199;28;20221;-62
2021/08/18 10:13:54;;;;;;;2.10;1.90;;;23.20;32.70;;;;;;5020161;28;20542;-63
2021/08/18 10:16:20;;;;;;;1.67;1.57;;;23.30;32.80;;;;;;5019158;28;20443;-62
2021/08/18 10:18:46;;;;;;;1.93;1.83;;;23.20;32.70;;;;;;5019436;28;20956;-61
2021/08/18 10:21:17;;;;;;;1.90;1.80;;;23.30;32.80;;;;;;5019424;28;20443;-63
2021/08/18 10:23:45;;;;;;;1.80;1.70;;;23.30;32.70;;;;;;5019701;28;20268;-62
2021/08/18 10:26:36;;;;;;;2.03;1.83;;;23.20;32.70;;;;;;5025676;28;20504;-62
2021/08/18 10:29:13;;;;;;;1.97;1.70;;;23.20;32.70;;;;;;5021952;28;20866;-63
2021/08/18 10:31:41;;;;;;;1.57;1.47;;;23.30;32.80;;;;;;5035479;28;20529;-62
2021/08/18 10:34:22;;;;;;;1.40;1.33;;;23.30;32.70;;;;;;5038749;28;20446;-62
2021/08/18 10:36:50;;;;;;;1.37;1.27;;;23.20;32.70;;;;;;5039203;28;20558;-59
2021/08/18 10:39:19;;;;;;;1.40;1.30;;;23.20;32.70;;;;;;5039170;28;20445;-63
2021/08/18 10:42:10;;;;;;;1.70;1.60;;;23.20;32.70;;;;;;5039027;28;20555;-65
2021/08/18 10:44:46;;;;;;;1.57;1.47;;;23.20;32.70;;;;;;5039042;28;20790;-64
2021/08/18 10:47:18;;;;;;;1.50;1.40;;;23.30;32.70;;;;;;5038459;28;20461;-63
2021/08/18 10:49:46;;;;;;;1.37;1.27;;;23.30;32.70;;;;;;5038517;28;20515;-62
2021/08/18 10:52:31;;;;;;;1.50;1.40;;;23.30;32.70;;;;;;5038790;28;20527;-63
2021/08/18 10:55:25;;;;;;;1.47;1.37;;;23.30;32.80;;;;;;5037561;28;20439;-63
2021/08/18 10:57:55;;;;;;;3.13;1.30;;;23.30;32.70;;;;;;5038541;28;20446;-63
2021/08/18 11:00:40;;;;;;;1.40;1.30;;;23.40;32.80;;;;;;5038664;28;20434;-64
2021/08/18 11:03:07;;;;;;;1.20;1.20;;;23.30;32.70;;;;;;5038608;28;20517;-64
2021/08/18 11:05:38;;;;;;;1.70;1.60;;;23.40;32.80;;;;;;5038104;28;20493;-63
2021/08/18 11:08:18;;;;;;;3.20;1.40;;;23.30;32.70;;;;;;5038465;28;20451;-65
2021/08/18 11:10:50;;;;;;;1.53;1.43;;;23.40;32.80;;;;;;5038065;28;20458;-64
2021/08/18 11:13:16;;;;;;;1.43;1.33;;;23.30;32.70;;;;;;5037985;28;20543;-63
2021/08/18 11:15:50;;;;;;;1.40;1.30;;;23.30;32.70;;;;;;5038492;28;20474;-62
2021/08/18 11:18:21;;;;;;;1.90;1.30;;;23.30;32.70;;;;;;5038189;28;20494;-63
2021/08/18 11:20:47;;;;;;;1.33;1.23;;;23.30;32.70;;;;;;5038699;28;21104;-61
2021/08/18 11:23:14;;;;;;;1.10;1.10;;;23.30;32.80;;;;;;5038262;28;21115;-62
2021/08/18 11:25:45;;;;;;;1.77;1.33;;;23.20;32.70;;;;;;5038067;28;20952;-64
2021/08/18 11:28:26;;;;;;;1.30;1.30;;;23.30;32.70;;;;;;5038469;28;21044;-60
2021/08/18 11:31:10;;;;;;;1.60;1.50;;;23.30;32.70;;;;;;5037752;28;20439;-63
2021/08/18 11:33:36;;;;;;;1.63;1.43;;;23.30;32.70;;;;;;5037363;28;20454;-62
2021/08/18 11:36:12;;;;;;;1.50;1.40;;;23.30;32.70;;;;;;5037669;28;20586;-63
2021/08/18 11:38:38;;;;;;;3.20;1.83;;;23.30;32.80;;;;;;5037878;28;20231;-63
2021/08/18 11:41:03;;;;;;;1.80;1.70;;;23.20;32.70;;;;;;5018472;28;20459;-63
2021/08/18 11:43:37;;;;;;;1.27;1.27;;;23.30;32.90;;;;;;5018299;28;20225;-60
2021/08/18 11:46:03;;;;;;;1.77;1.67;;;23.30;32.90;;;;;;5017645;28;20247;-63
2021/08/18 11:48:28;;;;;;;6.00;2.80;;;23.40;32.80;;;;;;5018363;28;20455;-62
2021/08/18 11:50:57;;;;;;;2.80;2.50;;;23.40;32.90;;;;;;5018023;28;20235;-63
2021/08/18 11:53:23;;;;;;;7.13;6.40;;;23.30;32.70;;;;;;5018561;28;20248;-62
2021/08/18 11:55:58;;;;;;;8.53;7.07;;;23.30;32.70;;;;;;5037104;28;20557;-62
2021/08/18 11:58:31;;;;;;;8.50;7.07;;;23.40;32.90;;;;;;5037630;28;20469;-63
2021/08/18 12:00:58;;;;;;;7.97;6.07;;;23.30;32.90;;;;;;5037207;28;20446;-63
2021/08/18 12:03:24;;;;;;;9.97;7.07;;;23.30;32.90;;;;;;5037278;28;20454;-63
2021/08/18 12:05:57;;;;;;;10.03;7.43;;;23.30;33.00;;;;;;5037533;28;20485;-63
2021/08/18 12:08:36;;;;;;;10.00;6.13;;;23.40;33.40;;;;;;5037934;28;20453;-63
2021/08/18 12:11:03;;;;;;;10.53;5.73;;;23.40;33.30;;;;;;5037753;28;20899;-63
2021/08/18 12:13:41;;;;;;;8.77;7.13;;;23.30;33.20;;;;;;5037566;28;20518;-62
2021/08/18 12:16:27;;;;;;;6.27;5.20;;;23.30;33.40;;;;;;5037232;28;20529;-66
2021/08/18 12:19:11;;;;;;;7.93;5.13;;;23.40;33.40;;;;;;5037316;28;20499;-65
2021/08/18 12:21:37;;;;;;;6.30;4.50;;;23.30;33.20;;;;;;5037289;28;20500;-63
2021/08/18 12:24:09;;;;;;;5.03;4.57;;;23.30;33.30;;;;;;5019849;28;20487;-64
2021/08/18 12:26:37;;;;;;;7.57;4.70;;;23.40;33.50;;;;;;5013112;28;20255;-63
2021/08/18 12:29:05;;;;;;;7.70;4.50;;;23.40;33.40;;;;;;5007241;28;20440;-64
2021/08/18 12:32:09;;;;;;;4.57;4.17;;;23.40;33.40;;;;;;5005625;28;20999;-63
2021/08/18 12:34:46;;;;;;;5.03;4.53;;;23.40;33.50;;;;;;5005219;28;20937;-63
2021/08/18 12:37:23;;;;;;;3.40;3.10;;;23.40;33.50;;;;;;5006902;28;20985;-62
2021/08/18 12:40:01;;;;;;;5.03;3.20;;;23.40;33.50;;;;;;5005139;28;20443;-63
2021/08/18 12:42:40;;;;;;;6.03;4.30;;;23.40;33.50;;;;;;5009826;28;20479;-63
2021/08/18 12:45:08;;;;;;;7.93;3.90;;;23.40;33.40;;;;;;5008403;28;20530;-63
2021/08/18 12:47:41;;;;;;;10.17;4.93;;;23.40;33.30;;;;;;5004111;28;20546;-63